Station info - map view · info · telemetry · weather · raw · status · beacons · messages · bulletins · browse · moving · my account
Callsign, ship name or locator: Clear       
It is possible to search using wildcards (*?) after a prefix. Example: OH*
APRS station OE5LFM-9 - show graphs
Map loading...
Mic-E message: Off duty
Last status: Test B 12.1.2014
Location: 48°28.26' N 14°18.16' E - locator JN78DL63HA - show map - static map
0.8 miles Northwest bearing 330° from Sonnberg im Mühlkreis (Sonnberg im Muehlkreis), Politischer Bezirk Urfahr Umgebung, Upper Austria, Austria [?]
1.5 miles East bearing 75° from Zwettl an der Rodl, Politischer Bezirk Urfahr Umgebung, Upper Austria, Austria
11.4 miles North bearing 4° from Linz, Upper Austria, Austria
74.3 miles Northeast bearing 51° from Salzburg, Salzburg, Austria
Last position: 2017-10-18 11:03:54 EDT (3h37m ago)
2017-10-18 17:03:54 CEST local time at Sonnberg im Mühlkreis, Austria [?]
Altitude: 2530 ft
Course: 92°
Last path: OE5LFM-9>TXRX26 via WIDE1-1,qAR,OE5XIM-10 (good)
Positions stored: 111357
Packet rate: 40 seconds between packets on average during 2018 seconds.
Other SSIDs: OE5LFM OE5LFM-14 OE5LFM-7
Stations near current position of OE5LFM-9 - show more
callsign distance last heard - EDT      callsign distance last heard - EDT
CW45940.8 miles 150°2017-10-18 14:35:09 M1343658_2.8 miles 131°2017-09-26 00:11:25
M13436583.1 miles 128°2017-09-26 00:10:28 OE5TSO-93.9 miles 354°2017-10-05 11:37:01
OE1FRA-14.0 miles 0°2017-10-18 08:54:22 OE5XOR4.1 miles 199°2017-10-18 14:34:36
OE5XOL-B4.1 miles 199°2017-10-18 14:26:24 OE5XOL B4.1 miles 199°2017-10-18 14:26:14
OE5XOL4.1 miles 199°2017-10-18 14:13:42 L1653030_5.2 miles 282°2017-10-04 10:00:15
OE5TSO-75.4 miles 345°2017-10-05 11:18:50 L16530305.6 miles 280°2017-10-04 09:59:05
L16232805.6 miles 355°2017-10-04 21:25:09 L1623280_5.7 miles 7°2017-10-04 21:26:15
OE5XLL-26.3 miles 200°2017-10-18 14:13:45 OE5XIM6.3 miles 346°2017-10-18 14:13:42
OE5XLL6.3 miles 200°2017-09-29 08:31:36 OE5XLL DP6.3 miles 200°2017-10-18 14:32:31
OE5XSN6.3 miles 346°2017-10-18 14:13:43 OE5XIM-106.4 miles 346°2017-10-18 14:32:20
Stations which heard OE5LFM-9 directly on radio –
callsign pkts first heard - EDT last heard longest (tx => rx) longest at - EDT
OE5XOR 59 2017-10-07 10:57:40 2017-10-18 10:59:58 JN68WE > JN78DJ 24.8 miles 48° 2017-10-07 16:12:02
OE3XKR 1 2017-10-07 09:39:41 2017-10-07 09:39:41 JN78RT > JN88EN 46.2 miles 112° 2017-10-07 09:39:41
OE5ERN-10 35 2017-10-07 13:15:08 2017-10-18 10:49:15 JN78CE > JN78DH 9.9 miles 18° 2017-10-07 16:26:32
OE3XXR 1 2017-10-07 11:23:16 2017-10-07 11:23:16 JN78DL > JN78GD 23.6 miles 155° 2017-10-07 11:23:16
OE5XDO-10 5 2017-10-15 05:38:36 2017-10-15 09:49:06 JN78DL > JN68VM 21.6 miles 276° 2017-10-15 09:49:06
OE5XIM-10 140 2017-10-07 02:18:55 2017-10-18 11:03:54 JN78NS > JN78DN 43.1 miles 252° 2017-10-07 10:13:58
OE5XGL-10 29 2017-10-07 02:50:54 2017-10-15 09:37:57 JN78IN > JN67VV 60.1 miles 221° 2017-10-07 10:53:23
OE5REO-10 29 2017-10-15 04:49:30 2017-10-18 10:56:35 JN78DK > JN77BV 37.0 miles 192° 2017-10-18 10:56:35
OE3XIA-10 2 2017-10-07 09:24:50 2017-10-07 09:39:40 JN78RT > JN88CF 54.1 miles 138° 2017-10-07 09:39:40
OE2XZR-10 1 2017-10-15 05:42:37 2017-10-15 05:42:37 JN68VI > JN67NT 48.8 miles 219° 2017-10-15 05:42:37
OE5DRP 7 2017-10-15 05:23:05 2017-10-15 09:33:00 JN78CJ > JN68XP 21.3 miles 326° 2017-10-15 09:33:00
OE3XNR 70 2017-10-07 03:02:10 2017-10-07 10:46:01 JN78SU > JN78JQ 36.0 miles 250° 2017-10-07 09:34:05
OE5EEP-10 12 2017-10-07 16:09:13 2017-10-15 09:48:12 JN78DL > JN67TX 47.5 miles 222° 2017-10-15 09:48:12
OE3PDB-6 2 2017-10-07 03:57:26 2017-10-07 09:49:09 JN78QT > JN88BG 50.5 miles 138° 2017-10-07 09:49:09
OE3PDB-3 1 2017-10-07 09:49:09 2017-10-07 09:49:09 JN78QT > JN88BG 50.4 miles 138° 2017-10-07 09:49:09
OE5XUL-10 43 2017-10-07 11:26:39 2017-10-18 11:00:58 JN78DL > JN68SE 38.5 miles 241° 2017-10-15 23:49:45
OE3XLR 2 2017-10-15 08:49:57 2017-10-15 09:18:50 JN68VI > JN77TX 87.6 miles 106° 2017-10-15 08:49:57
OE3MUC-15 5 2017-10-07 02:23:40 2017-10-07 13:35:48 JN78AE > JN78SK 71.8 miles 77° 2017-10-07 13:35:48
OE5XHR-10 18 2017-10-07 02:24:50 2017-10-07 16:59:43 JO51BJ > JN68XR 249.8 miles 136° 2017-10-07 15:59:00
DB0PAS-10 3 2017-10-07 02:25:07 2017-10-07 16:55:32 JN78EL > JN68SO 36.9 miles 280° 2017-10-07 02:25:07
OE5KPN-10 4 2017-10-07 11:03:19 2017-10-07 11:08:33 JN78GM > JN78GM 1.3 miles 226° 2017-10-07 11:03:19
OE5WWO 83 2017-10-07 13:04:14 2017-10-18 10:55:15 JN68XE > JN78DH 17.2 miles 61° 2017-10-07 16:16:09
OE2XWR-10 2 2017-10-07 02:47:05 2017-10-07 10:58:54 JN78HM > JN67IE 127.9 miles 224° 2017-10-07 10:58:54
OE3XRC-10 37 2017-10-07 03:33:04 2017-10-07 10:45:43 JN78JO > JN78QQ 28.8 miles 79° 2017-10-07 10:45:43
OE5XLM-10 13 2017-10-07 13:16:48 2017-10-18 10:32:56 JN68XI > JN78CH 13.8 miles 111° 2017-10-15 09:09:35
OK0BDV-2 24 2017-10-07 03:14:20 2017-10-07 10:30:19 JN78SU > JN78IR 36.9 miles 258° 2017-10-07 09:34:04
OE3FPA-10 15 2017-10-07 03:02:09 2017-10-07 10:43:31 JN78JO > JN78NU 25.0 miles 42° 2017-10-07 03:02:09
OE3VPA-10 56 2017-10-07 03:03:31 2017-10-07 10:46:01 JN78UT > JN78KS 36.3 miles 267° 2017-10-07 09:22:31

Only position packets which were originated by the station are shown here. The range statistics show some extra long hops, because some digipeaters do not correctly add themselves to the digipeater path. Please check the raw packets.
About this site
This page shows real-time information collected from the Automatic Position Reporting System Internet network (APRS-IS). APRS is used by amateur (ham) radio operators to transmit real-time position information, weather data, telemetry and messages over the radio. A vehicle equipped with a GPS receiver, a VHF transmitter or HF transceiver and a small computer device called a tracker transmits it's location, speed and course in a small data packet, which is then received by a nearby iGate receiving site which forwards the packet on the Internet. Systems connected to the Internet can send information on the APRS-IS without a radio transmitter, or collect and display information transmitted anywhere in the world.
FAQ · Blog · Discussion group · Linking to aprs.fi · AIS sites · Service status · Database statistics · Advertising on aprs.fi · Technical details · API · Change log · Planned changes · Credits and thanks · Terms Of Service · iPhone/iPad APRS